Time;durP1;ratioP1;P1;durP2;ratioP2;P2;SDS_P1;SDS_P2;PMS_P1;PMS_P2;Temp;Humidity;BMP_temperature;BMP_pressure;BME280_temperature;BME280_humidity;BME280_pressure;Samples;Min_cycle;Max_cycle;Signal;HPM_P1;HPM_P2
2021/05/16 00:00:21;;;;;;;8.73;7.83;;;;;;;10.43;81.29;98594.45;1737661;81;20214;-64
2021/05/16 00:02:51;;;;;;;11.38;7.70;;;;;;;10.42;81.27;98594.09;1743968;81;21006;-64
2021/05/16 00:05:22;;;;;;;9.25;7.75;;;;;;;10.43;81.23;98594.45;1738195;81;20986;-63
2021/05/16 00:07:49;;;;;;;11.08;8.93;;;;;;;10.43;81.23;98589.70;1738052;81;21015;-64
2021/05/16 00:10:19;;;;;;;11.70;8.68;;;;;;;10.43;81.29;98588.40;1739033;81;20891;-63
2021/05/16 00:12:46;;;;;;;9.55;8.10;;;;;;;10.42;81.27;98592.79;1735490;81;20948;-64
2021/05/16 00:15:15;;;;;;;;;;;;;;;10.41;81.28;98593.70;1747112;81;20927;-64
2021/05/16 00:17:43;;;;;;;9.40;7.95;;;;;;;10.38;81.36;98586.08;1748753;81;21030;-63
2021/05/16 00:20:14;;;;;;;9.13;8.05;;;;;;;10.37;81.42;98594.02;1738781;80;20962;-63
2021/05/16 00:22:41;;;;;;;12.60;9.10;;;;;;;10.35;81.38;98604.55;1674909;84;20925;-63
2021/05/16 00:25:13;;;;;;;8.68;7.53;;;;;;;10.36;81.51;98606.20;1678392;84;20977;-64
2021/05/16 00:27:41;;;;;;;9.13;7.65;;;;;;;10.36;81.47;98600.98;1695143;83;21522;-63
2021/05/16 00:30:12;;;;;;;10.80;8.13;;;;;;;10.38;81.45;98601.73;1685639;84;21583;-64
2021/05/16 00:32:40;;;;;;;10.58;8.18;;;;;;;10.40;81.43;98605.09;1691869;84;20953;-63
2021/05/16 00:35:09;;;;;;;7.97;7.15;;;;;;;10.43;81.47;98597.06;1706925;83;21771;-63
2021/05/16 00:37:36;;;;;;;9.58;7.67;;;;;;;10.45;81.45;98595.20;1709884;83;20949;-64
2021/05/16 00:40:06;;;;;;;10.95;7.75;;;;;;;10.48;81.52;98592.39;1711184;83;21012;-63
2021/05/16 00:42:34;;;;;;;8.45;7.12;;;;;;;10.50;81.46;98594.44;1709151;83;21065;-63
2021/05/16 00:45:11;;;;;;;8.35;6.95;;;;;;;10.51;81.35;98597.41;1707363;83;20971;-64
2021/05/16 00:47:39;;;;;;;;;;;;;;;10.51;81.35;98589.58;1716409;83;20921;-63
2021/05/16 00:50:09;;;;;;;10.15;6.80;;;;;;;10.55;81.40;98590.67;1713033;83;20166;-63
2021/05/16 00:52:39;;;;;;;8.33;6.45;;;;;;;10.57;81.36;98584.42;1712865;83;21677;-64
2021/05/16 00:55:08;;;;;;;7.67;6.50;;;;;;;10.59;81.30;98584.34;1708388;83;21060;-64
2021/05/16 00:57:35;;;;;;;7.17;6.47;;;;;;;10.62;81.30;98584.13;1707057;83;21630;-63
2021/05/16 01:00:08;;;;;;;9.35;6.83;;;;;;;10.63;81.29;98577.96;1714145;83;20957;-64
2021/05/16 01:02:35;;;;;;;8.73;6.00;;;;;;;10.65;81.25;98582.63;1712182;83;21566;-63
2021/05/16 01:05:03;;;;;;;8.15;6.55;;;;;;;10.67;81.22;98579.42;1710282;83;20943;-64
2021/05/16 01:07:30;;;;;;;10.25;7.47;;;;;;;10.68;81.22;98570.67;1705342;83;21480;-63
2021/05/16 01:09:57;;;;;;;10.13;6.65;;;;;;;10.70;81.19;98575.33;1708495;83;20996;-64
2021/05/16 01:12:30;;;;;;;8.15;6.87;;;;;;;10.69;81.16;98571.86;1708947;83;20961;-63
2021/05/16 01:14:55;;;;;;;8.95;6.00;;;;;;;10.69;81.17;98569.72;1691664;83;20993;-63
2021/05/16 01:17:21;;;;;;;9.03;6.67;;;;;;;10.67;81.10;98571.59;1683237;84;20917;-64
2021/05/16 01:19:48;;;;;;;9.43;6.87;;;;;;;10.66;81.13;98563.41;1689604;84;20997;-64
2021/05/16 01:22:15;;;;;;;9.60;6.55;;;;;;;10.67;81.12;98572.89;1684822;84;20905;-63
2021/05/16 01:24:45;;;;;;;9.03;6.28;;;;;;;10.67;81.08;98566.37;1684770;84;21440;-63
2021/05/16 01:27:13;;;;;;;6.60;5.45;;;;;;;10.61;81.04;98557.64;1688474;84;21002;-64
2021/05/16 01:29:41;;;;;;;7.12;6.03;;;;;;;10.67;81.01;98571.14;1687714;83;21053;-64
2021/05/16 01:32:11;;;;;;;9.55;6.45;;;;;;;10.68;80.91;98577.20;1688161;83;21398;-64
2021/05/16 01:34:41;;;;;;;6.97;6.28;;;;;;;10.69;80.96;98573.64;1682905;84;20945;-64
2021/05/16 01:37:13;;;;;;;9.88;6.40;;;;;;;10.69;80.90;98576.25;1684756;84;20929;-63
2021/05/16 01:39:45;;;;;;;11.78;6.22;;;;;;;10.69;80.90;98572.33;1685569;84;20941;-64
2021/05/16 01:42:11;;;;;;;8.33;5.85;;;;;;;10.69;80.91;98576.25;1687501;83;20933;-63
2021/05/16 01:44:38;;;;;;;6.15;5.58;;;;;;;10.66;80.88;98576.45;1681245;84;21615;-64
2021/05/16 01:47:05;;;;;;;6.92;5.90;;;;;;;10.67;80.86;98574.20;1688430;84;22034;-63
2021/05/16 01:49:43;;;;;;;6.78;5.83;;;;;;;10.66;80.85;98576.45;1689473;84;26343;-63
2021/05/16 01:52:10;;;;;;;;;;;;;;;10.66;80.80;98586.89;1685080;82;20957;-64
2021/05/16 01:54:38;;;;;;;6.22;5.62;;;;;;;10.65;80.84;98578.70;1681643;84;20146;-63
2021/05/16 01:57:06;;;;;;;6.83;5.55;;;;;;;10.64;80.78;98584.41;1685487;84;21123;-63
2021/05/16 01:59:36;;;;;;;6.53;5.80;;;;;;;10.63;80.76;98577.48;1682278;83;21961;-63
2021/05/16 02:02:04;;;;;;;6.47;5.25;;;;;;;10.63;80.73;98577.96;1689564;82;21032;-64
2021/05/16 02:04:33;;;;;;;8.58;5.70;;;;;;;10.63;80.74;98581.88;1688338;84;21625;-63
2021/05/16 02:07:00;;;;;;;6.20;5.20;;;;;;;10.61;80.71;98582.44;1688336;84;20977;-63
2021/05/16 02:09:27;;;;;;;7.20;5.58;;;;;;;10.61;80.73;98588.97;1685919;84;21034;-63
2021/05/16 02:11:55;;;;;;;6.53;5.50;;;;;;;10.60;80.68;98576.86;1686043;84;20972;-64
2021/05/16 02:14:29;;;;;;;6.45;5.47;;;;;;;10.59;80.70;98583.86;1688200;84;20929;-63
2021/05/16 02:16:59;;;;;;;5.50;5.00;;;;;;;10.59;80.67;98586.95;1686035;84;20953;-63
2021/05/16 02:19:26;;;;;;;5.85;4.95;;;;;;;10.58;80.67;98587.39;1665958;84;20961;-64
2021/05/16 02:21:53;;;;;;;8.83;4.97;;;;;;;10.58;80.67;98581.34;1687543;84;20987;-63
2021/05/16 02:24:21;;;;;;;7.15;4.70;;;;;;;10.57;80.71;98579.67;1684215;84;20955;-63
2021/05/16 02:26:53;;;;;;;6.25;4.85;;;;;;;10.58;80.71;98586.56;1689319;83;20941;-63
2021/05/16 02:29:20;;;;;;;5.55;5.05;;;;;;;10.58;80.71;98586.56;1685996;83;21563;-63
2021/05/16 02:31:47;;;;;;;5.90;4.80;;;;;;;10.59;80.70;98593.47;1683843;84;20957;-63
2021/05/16 02:34:14;;;;;;;5.80;4.87;;;;;;;10.57;80.71;98583.59;1688978;84;22188;-63
2021/05/16 02:36:40;;;;;;;6.00;5.40;;;;;;;10.57;80.71;98587.51;1685393;84;20917;-64
2021/05/16 02:39:07;;;;;;;7.15;5.65;;;;;;;10.56;80.72;98589.73;1683954;84;22285;-63
2021/05/16 02:41:35;;;;;;;8.05;5.22;;;;;;;10.55;80.72;98591.98;1685124;84;20970;-64
2021/05/16 02:44:01;;;;;;;5.92;5.37;;;;;;;10.55;80.73;98587.59;1682278;84;21052;-63
2021/05/16 02:46:28;;;;;;;6.28;5.10;;;;;;;10.52;80.71;98578.19;1684786;84;21581;-63
2021/05/16 02:48:55;;;;;;;6.35;5.15;;;;;;;10.53;80.74;98581.66;1682021;84;20935;-63
2021/05/16 02:51:23;;;;;;;7.45;6.03;;;;;;;10.52;80.74;98586.02;1685039;84;21469;-63
2021/05/16 02:53:49;;;;;;;5.42;4.65;;;;;;;10.51;80.81;98584.36;1682679;84;20968;-63
2021/05/16 02:56:17;;;;;;;6.40;5.12;;;;;;;10.53;80.80;98581.19;1684185;84;21522;-63
2021/05/16 02:58:45;;;;;;;7.03;5.22;;;;;;;10.53;80.79;98590.32;1687661;84;21569;-63
2021/05/16 03:01:12;;;;;;;;;;;;;;;10.53;80.80;98576.44;1692028;82;21001;-64
2021/05/16 03:03:40;;;;;;;5.87;5.30;;;;;;;10.53;80.84;98582.48;1686042;83;20211;-63
2021/05/16 03:06:08;;;;;;;6.35;5.03;;;;;;;10.52;80.82;98574.75;1687889;84;20930;-63
2021/05/16 03:08:35;;;;;;;7.10;4.97;;;;;;;10.51;80.87;98572.61;1687366;84;21574;-63
2021/05/16 03:11:02;;;;;;;7.05;4.78;;;;;;;10.51;80.92;98576.52;1685328;84;21857;-63
2021/05/16 03:13:29;;;;;;;6.65;5.25;;;;;;;10.49;80.90;98580.17;1686107;84;21472;-63
2021/05/16 03:15:56;;;;;;;6.00;5.33;;;;;;;10.48;80.94;98579.34;1686011;84;20902;-64
2021/05/16 03:18:23;;;;;;;;;;;;;;;10.47;80.97;98579.42;1687948;84;20938;-63
2021/05/16 03:20:51;;;;;;;6.80;5.33;;;;;;;10.45;81.04;98582.15;1685498;84;20194;-63
2021/05/16 03:23:18;;;;;;;6.47;5.00;;;;;;;10.43;81.08;98581.41;1685844;84;21027;-63
2021/05/16 03:25:46;;;;;;;6.12;5.45;;;;;;;10.42;81.11;98578.44;1689619;83;21068;-63
2021/05/16 03:28:13;;;;;;;7.08;6.17;;;;;;;10.42;81.15;98581.48;1685129;84;20943;-63
2021/05/16 03:30:40;;;;;;;6.42;5.42;;;;;;;10.37;81.18;98573.98;1686043;84;21443;-64
2021/05/16 03:33:07;;;;;;;8.05;5.62;;;;;;;10.42;81.18;98586.27;1685986;84;20955;-63
2021/05/16 03:35:33;;;;;;;5.62;5.08;;;;;;;10.41;81.24;98580.66;1704422;82;21065;-63
2021/05/16 03:38:00;;;;;;;7.12;5.30;;;;;;;10.42;81.30;98587.57;1676845;83;20964;-63
2021/05/16 03:40:27;;;;;;;6.85;5.50;;;;;;;10.43;81.33;98591.02;1697119;82;20899;-64
2021/05/16 03:42:54;;;;;;;6.53;5.80;;;;;;;10.43;81.37;98586.62;1739175;81;20986;-64
2021/05/16 03:45:21;;;;;;;6.45;5.60;;;;;;;10.44;81.38;98588.28;1672428;84;20961;-64
2021/05/16 03:47:48;;;;;;;5.97;5.37;;;;;;;10.44;81.42;98580.45;1680332;84;21033;-63
2021/05/16 03:50:14;;;;;;;7.87;5.17;;;;;;;10.45;81.46;98584.76;1680013;84;21096;-63
2021/05/16 03:52:43;;;;;;;7.27;6.20;;;;;;;10.45;81.48;98582.15;1683137;84;20933;-63
2021/05/16 03:55:12;;;;;;;7.50;5.90;;;;;;;10.47;81.50;98589.42;1680417;84;21008;-64
2021/05/16 03:57:39;;;;;;;7.15;5.80;;;;;;;10.46;81.55;98586.42;1677710;84;20921;-63
2021/05/16 04:00:08;;;;;;;11.18;5.95;;;;;;;10.46;81.57;98589.03;1680703;84;21010;-64
2021/05/16 04:02:35;;;;;;;7.28;6.58;;;;;;;10.45;81.61;98589.98;1680445;84;20930;-63
2021/05/16 04:05:04;;;;;;;8.65;6.60;;;;;;;10.45;81.67;98581.31;1677024;84;20915;-64
2021/05/16 04:07:30;;;;;;;8.33;6.35;;;;;;;10.45;81.72;98583.45;1682600;84;20921;-63
2021/05/16 04:09:57;;;;;;;8.37;5.50;;;;;;;10.48;81.78;98588.47;1682978;84;20930;-63
2021/05/16 04:12:24;;;;;;;7.17;6.33;;;;;;;10.50;81.81;98582.69;1680373;84;21552;-64
2021/05/16 04:14:51;;;;;;;8.07;6.20;;;;;;;10.52;81.80;98580.80;1683796;83;21033;-64
2021/05/16 04:17:19;;;;;;;7.17;6.45;;;;;;;10.56;81.85;98591.03;1745051;81;20933;-64
2021/05/16 04:19:46;;;;;;;6.65;5.95;;;;;;;10.61;81.96;98584.58;1740478;81;20924;-64
2021/05/16 04:22:13;;;;;;;9.60;7.15;;;;;;;10.67;81.97;98580.28;1744989;81;21482;-64
2021/05/16 04:24:40;;;;;;;8.43;6.95;;;;;;;10.73;81.91;98582.95;1684067;84;21211;-64
2021/05/16 04:27:07;;;;;;;8.40;6.40;;;;;;;10.77;81.91;98571.36;1684927;84;21666;-64
2021/05/16 04:29:34;;;;;;;9.53;6.70;;;;;;;10.78;81.83;98570.41;1685061;84;21585;-64
2021/05/16 04:32:00;;;;;;;6.42;5.72;;;;;;;10.80;81.85;98572.45;1689438;82;20907;-64
2021/05/16 04:34:27;;;;;;;6.42;5.67;;;;;;;10.78;81.80;98578.24;1700228;82;21457;-64
2021/05/16 04:36:54;;;;;;;6.20;5.60;;;;;;;10.74;81.83;98568.95;1708732;82;21121;-63
2021/05/16 04:39:21;;;;;;;9.27;6.10;;;;;;;10.62;81.89;98550.20;1704060;82;21477;-64
2021/05/16 04:41:48;;;;;;;7.15;6.08;;;;;;;10.72;81.91;98569.05;1701326;82;20966;-64
2021/05/16 04:44:15;;;;;;;6.75;6.05;;;;;;;10.74;81.96;98566.34;1696923;82;21506;-63
2021/05/16 04:46:42;;;;;;;6.75;5.70;;;;;;;10.75;82.01;98562.78;1696670;82;20930;-63
2021/05/16 04:49:08;;;;;;;6.90;6.20;;;;;;;10.76;81.95;98564.48;1696279;82;21472;-64
2021/05/16 04:51:36;;;;;;;5.80;5.20;;;;;;;10.77;82.01;98568.75;1708490;82;21102;-63
2021/05/16 04:54:03;;;;;;;9.35;6.47;;;;;;;10.80;82.07;98557.27;1701196;82;28396;-64
2021/05/16 04:56:30;;;;;;;8.15;6.65;;;;;;;10.78;82.00;98553.44;1697638;82;20992;-64
2021/05/16 04:58:57;;;;;;;8.83;6.40;;;;;;;10.79;82.09;98562.97;1701444;82;21470;-63
2021/05/16 05:01:24;;;;;;;10.65;6.53;;;;;;;10.81;82.05;98562.40;1688825;82;21486;-64
2021/05/16 05:03:50;;;;;;;8.63;6.65;;;;;;;10.81;82.13;98558.93;1741181;81;20970;-64
2021/05/16 05:06:18;;;;;;;5.97;5.35;;;;;;;10.83;82.16;98553.97;1745760;81;20930;-63
2021/05/16 05:08:44;;;;;;;7.05;6.42;;;;;;;10.85;82.14;98557.33;1754246;80;20999;-64
2021/05/16 05:11:11;;;;;;;8.20;5.77;;;;;;;10.86;82.09;98553.77;1743326;81;20949;-63
2021/05/16 05:13:38;;;;;;;7.65;6.08;;;;;;;10.86;82.18;98556.38;1743590;81;21505;-63
2021/05/16 05:16:05;;;;;;;7.27;6.13;;;;;;;10.89;82.16;98554.86;1689169;82;20944;-63
2021/05/16 05:18:33;;;;;;;;;;;;;;;10.88;82.16;98557.12;1671581;82;21525;-64
2021/05/16 05:20:59;;;;;;;;;;;;;;;10.85;82.22;98563.86;1696872;84;20518;-64
2021/05/16 05:23:27;;;;;;;8.88;6.33;;;;;;;10.80;82.22;98554.18;1744604;81;20197;-64
2021/05/16 05:25:57;;;;;;;8.70;7.55;;;;;;;10.76;82.21;98556.64;1740635;81;21119;-63
2021/05/16 05:28:23;;;;;;;10.25;7.67;;;;;;;10.71;82.31;98554.80;1743983;81;20900;-63
2021/05/16 05:30:51;;;;;;;6.47;5.78;;;;;;;10.72;82.32;98552.07;1747788;81;20952;-63
2021/05/16 05:33:19;;;;;;;7.97;7.00;;;;;;;10.76;82.30;98550.12;1692201;83;20914;-64
2021/05/16 05:35:46;;;;;;;;;;;;;;;10.78;82.29;98539.08;1688869;84;20928;-63
2021/05/16 05:38:13;;;;;;;8.98;7.20;;;;;;;10.78;82.34;98541.69;1696034;82;21598;-64
2021/05/16 05:40:40;;;;;;;;;;;;;;;10.81;82.39;98541.52;1741667;81;21538;-63
2021/05/16 05:43:07;;;;;;;10.10;7.37;;;;;;;10.86;82.41;98543.31;1745312;81;20157;-63
2021/05/16 05:45:34;;;;;;;11.15;8.65;;;;;;;10.85;82.32;98542.13;1740263;81;21551;-63
2021/05/16 05:48:01;;;;;;;8.65;7.05;;;;;;;10.82;82.31;98548.39;1747298;81;20947;-63
2021/05/16 05:50:28;;;;;;;14.65;9.53;;;;;;;10.81;82.40;98548.04;1746909;81;21026;-63
2021/05/16 05:52:55;;;;;;;8.97;7.70;;;;;;;10.78;82.37;98548.22;1741238;81;20962;-63
2021/05/16 05:55:22;;;;;;;9.87;8.57;;;;;;;10.81;82.62;98551.95;1742855;81;20920;-63
2021/05/16 05:57:49;;;;;;;10.43;8.50;;;;;;;10.80;82.53;98551.57;1745591;81;21122;-64
2021/05/16 06:00:16;;;;;;;9.30;7.25;;;;;;;10.83;82.61;98554.45;1744534;81;20924;-63
2021/05/16 06:02:43;;;;;;;10.30;8.28;;;;;;;10.86;82.63;98547.23;1746442;80;21015;-63
2021/05/16 06:05:11;;;;;;;12.90;11.68;;;;;;;10.92;82.63;98548.16;1744916;81;20955;-63
2021/05/16 06:07:37;;;;;;;9.48;8.58;;;;;;;11.04;82.81;98549.57;1742526;81;20931;-63
2021/05/16 06:10:06;;;;;;;13.40;11.80;;;;;;;11.16;82.75;98551.34;1746136;81;20995;-63
2021/05/16 06:12:33;;;;;;;7.62;6.85;;;;;;;11.31;82.82;98550.27;1741009;81;20971;-64
2021/05/16 06:15:00;;;;;;;8.25;7.20;;;;;;;11.50;82.77;98551.63;1743291;81;20940;-63
2021/05/16 06:17:27;;;;;;;8.48;7.60;;;;;;;11.68;82.67;98550.34;1676306;84;24220;-64
2021/05/16 06:19:54;;;;;;;13.95;10.43;;;;;;;11.79;82.51;98546.50;1700059;82;21908;-63
2021/05/16 06:22:21;;;;;;;11.45;9.05;;;;;;;11.91;82.41;98551.84;1703157;82;20917;-63
2021/05/16 06:24:47;;;;;;;9.08;6.85;;;;;;;12.02;82.30;98548.81;1698405;82;20949;-63
2021/05/16 06:27:14;;;;;;;8.65;6.83;;;;;;;12.21;82.29;98540.48;1702788;83;20949;-64
2021/05/16 06:29:41;;;;;;;9.23;6.97;;;;;;;12.36;82.27;98545.53;1706701;83;20939;-63
2021/05/16 06:32:10;;;;;;;8.75;6.62;;;;;;;12.57;82.40;98537.38;1706505;83;20980;-64
2021/05/16 06:34:37;;;;;;;7.95;7.20;;;;;;;12.88;82.38;98539.02;1707568;83;20913;-64
2021/05/16 06:37:04;;;;;;;7.28;6.50;;;;;;;13.12;81.82;98534.55;1679151;84;20919;-64
2021/05/16 06:39:31;;;;;;;;;;;;;;;13.25;81.70;98528.34;1705583;83;21498;-64
2021/05/16 06:42:02;;;;;;;9.28;6.40;;;;;;;13.32;81.62;98526.96;1702283;83;20187;-63
2021/05/16 06:44:27;;;;;;;7.67;6.72;;;;;;;13.55;81.60;98525.98;1699951;83;20961;-64
2021/05/16 06:46:53;;;;;;;;;;;;;;;13.57;81.02;98526.71;1706463;83;20954;-64
2021/05/16 06:49:20;;;;;;;7.65;6.28;;;;;;;13.47;80.78;98525.78;1680316;84;20148;-64
2021/05/16 06:51:47;;;;;;;7.08;6.37;;;;;;;13.32;80.88;98524.34;1687456;84;21467;-64
2021/05/16 06:54:14;;;;;;;6.95;6.00;;;;;;;13.24;81.01;98521.44;1677456;83;20923;-64
2021/05/16 06:56:41;;;;;;;9.65;6.08;;;;;;;13.26;81.27;98514.34;1681339;84;21557;-64
2021/05/16 06:59:07;;;;;;;7.00;6.00;;;;;;;13.32;81.21;98516.48;1684273;83;20994;-63
2021/05/16 07:01:35;;;;;;;6.25;5.60;;;;;;;13.38;81.06;98519.44;1681502;84;20965;-64
2021/05/16 07:04:02;;;;;;;6.10;5.37;;;;;;;13.40;80.91;98514.92;1683030;84;21107;-63
2021/05/16 07:06:29;;;;;;;6.42;5.70;;;;;;;13.52;81.12;98509.19;1682403;84;20989;-64
2021/05/16 07:08:56;;;;;;;7.37;5.60;;;;;;;13.66;80.97;98504.17;1684678;84;20929;-64
2021/05/16 07:11:23;;;;;;;5.40;4.90;;;;;;;13.87;81.04;98517.38;1688629;84;20977;-63
2021/05/16 07:13:50;;;;;;;5.00;4.50;;;;;;;14.16;80.84;98503.69;1687012;82;21063;-65
2021/05/16 07:16:16;;;;;;;5.25;4.53;;;;;;;14.35;80.53;98509.11;1685561;82;21084;-64
2021/05/16 07:18:44;;;;;;;;;;;;;;;14.43;80.17;98505.38;1688353;84;21514;-64
2021/05/16 07:21:12;;;;;;;7.65;5.28;;;;;;;14.32;79.38;98510.68;1682676;84;20158;-65
2021/05/16 07:23:39;;;;;;;7.83;4.67;;;;;;;14.07;79.55;98506.11;1684053;84;21152;-64
2021/05/16 07:26:06;;;;;;;6.00;5.28;;;;;;;13.84;79.33;98509.76;1686651;82;20926;-64
2021/05/16 07:28:32;;;;;;;5.65;4.80;;;;;;;13.63;79.66;98505.23;1690430;84;20998;-64
2021/05/16 07:31:00;;;;;;;6.80;4.70;;;;;;;13.56;80.09;98508.01;1687483;83;20996;-66
2021/05/16 07:33:27;;;;;;;5.25;4.75;;;;;;;13.53;79.92;98512.19;1692097;84;21427;-66
2021/05/16 07:35:53;;;;;;;5.30;4.60;;;;;;;13.38;79.63;98513.38;1684430;83;20977;-65
2021/05/16 07:38:24;;;;;;;5.00;4.50;;;;;;;13.24;79.82;98518.82;1682888;84;21723;-65
2021/05/16 07:40:51;;;;;;;5.85;5.20;;;;;;;13.12;79.84;98517.98;1685100;84;21640;-65
2021/05/16 07:43:18;;;;;;;5.20;4.70;;;;;;;13.01;79.88;98518.80;1685713;84;21028;-65
2021/05/16 07:45:45;;;;;;;4.97;4.47;;;;;;;12.90;79.81;98516.17;1684158;84;20925;-65
2021/05/16 07:48:12;;;;;;;5.92;5.00;;;;;;;12.76;79.83;98523.28;1683277;84;21423;-65
2021/05/16 07:50:39;;;;;;;7.37;5.33;;;;;;;12.70;80.03;98531.60;1687552;82;21088;-64
2021/05/16 07:53:06;;;;;;;6.25;5.40;;;;;;;12.73;80.21;98531.84;1683207;82;21007;-65
2021/05/16 07:55:33;;;;;;;6.12;5.53;;;;;;;12.81;79.95;98527.35;1688740;82;21579;-65
2021/05/16 07:58:00;;;;;;;6.17;5.40;;;;;;;12.80;80.01;98534.83;1688119;82;20889;-64
2021/05/16 08:00:27;;;;;;;6.22;5.60;;;;;;;12.79;79.87;98534.48;1686235;84;21048;-64
2021/05/16 08:02:53;;;;;;;6.37;5.67;;;;;;;12.80;80.03;98540.07;1691564;82;20973;-64
2021/05/16 08:05:21;;;;;;;6.42;5.70;;;;;;;12.84;79.91;98542.84;1687458;84;21179;-64
2021/05/16 08:07:47;;;;;;;;;;;;;;;12.88;80.08;98537.71;1705308;83;20953;-64
2021/05/16 08:10:19;;;;;;;6.05;5.47;;;;;;;12.98;80.24;98526.91;1684814;84;20164;-63
2021/05/16 08:12:43;;;;;;;5.22;4.72;;;;;;;13.15;80.36;98529.06;1739316;80;20928;-64
2021/05/16 08:15:22;;;;;;;7.05;5.37;;;;;;;13.40;80.21;98524.58;1742129;80;20934;-64
2021/05/16 08:17:53;;;;;;;5.90;5.10;;;;;;;13.53;79.75;98530.55;1737530;81;20966;-64
2021/05/16 08:20:20;;;;;;;6.05;5.45;;;;;;;13.58;79.92;98527.09;1719400;81;20956;-64
2021/05/16 08:22:47;;;;;;;10.13;5.70;;;;;;;13.76;80.07;98522.65;1736552;81;20939;-64
2021/05/16 08:25:14;;;;;;;6.65;6.05;;;;;;;14.01;79.58;98518.41;1742462;80;21035;-64
2021/05/16 08:27:41;;;;;;;;;;;;;;;14.15;79.37;98517.79;1739482;80;20907;-64
2021/05/16 08:30:10;;;;;;;7.22;5.87;;;;;;;14.41;79.59;98519.11;1747155;81;26638;-64
2021/05/16 08:32:36;;;;;;;6.05;5.45;;;;;;;14.75;79.95;98518.97;1743709;81;20940;-64
2021/05/16 08:35:05;;;;;;;5.30;4.80;;;;;;;14.92;78.77;98514.44;1744486;81;20951;-64
2021/05/16 08:37:32;;;;;;;6.28;5.58;;;;;;;14.80;78.51;98518.11;1739284;80;20995;-64
2021/05/16 08:39:58;;;;;;;5.65;5.00;;;;;;;14.74;78.94;98518.14;1741576;81;21419;-64
2021/05/16 08:42:26;;;;;;;7.25;6.00;;;;;;;14.91;78.86;98516.72;1740572;81;20952;-65
2021/05/16 08:44:53;;;;;;;9.48;6.22;;;;;;;14.90;78.37;98520.33;1743455;81;21507;-64
2021/05/16 08:47:20;;;;;;;5.80;5.22;;;;;;;14.75;78.38;98519.80;1744472;81;21059;-64
2021/05/16 08:49:47;;;;;;;6.30;5.50;;;;;;;14.66;77.93;98519.26;1736795;81;20948;-65
2021/05/16 08:52:14;;;;;;;5.85;5.25;;;;;;;14.45;77.86;98525.79;1745290;80;20892;-64
2021/05/16 08:54:45;;;;;;;6.12;5.62;;;;;;;14.37;78.11;98525.58;1739660;80;21808;-64
2021/05/16 08:57:11;;;;;;;5.72;5.22;;;;;;;14.32;78.49;98522.49;1740905;81;20939;-64
2021/05/16 08:59:58;;;;;;;;;;;;;;;14.24;77.88;98519.66;1750940;81;20868;-64
2021/05/16 09:02:25;;;;;;;6.30;5.70;;;;;;;14.11;78.05;98519.80;1735620;81;20167;-64
2021/05/16 09:04:52;;;;;;;6.50;5.90;;;;;;;13.94;78.07;98526.41;1741517;80;20987;-65
2021/05/16 09:07:31;;;;;;;7.08;5.53;;;;;;;13.87;78.37;98525.25;1743813;81;20993;-64
2021/05/16 09:09:58;;;;;;;6.47;5.87;;;;;;;13.91;78.26;98521.41;1745102;81;20944;-64
2021/05/16 09:12:25;;;;;;;6.78;6.10;;;;;;;13.94;78.36;98527.72;1745400;81;20992;-64
2021/05/16 09:15:01;;;;;;;7.55;6.25;;;;;;;13.99;78.07;98524.26;1742643;80;20936;-64
2021/05/16 09:17:28;;;;;;;6.60;5.65;;;;;;;13.97;78.03;98524.84;1721914;81;21514;-64
2021/05/16 09:20:08;;;;;;;7.97;6.35;;;;;;;14.04;78.22;98524.73;1676311;84;21053;-65
2021/05/16 09:22:44;;;;;;;6.55;5.95;;;;;;;14.18;78.08;98514.91;1686221;83;21767;-66
2021/05/16 09:25:30;;;;;;;6.87;5.87;;;;;;;14.36;78.25;98513.39;1710601;83;20902;-66
2021/05/16 09:28:13;;;;;;;6.08;5.30;;;;;;;14.62;78.09;98510.44;1678519;83;21108;-64
2021/05/16 09:30:41;;;;;;;6.60;5.80;;;;;;;14.97;77.93;98506.17;1685595;84;20949;-64
2021/05/16 09:33:14;;;;;;;5.97;5.37;;;;;;;15.29;78.03;98506.07;1690101;82;21566;-65
2021/05/16 09:35:55;;;;;;;6.15;5.30;;;;;;;15.52;77.19;98508.02;1661628;84;21592;-65
2021/05/16 09:38:23;;;;;;;7.03;5.65;;;;;;;15.68;77.40;98510.16;1683296;84;20884;-65
2021/05/16 09:40:53;;;;;;;6.00;5.33;;;;;;;15.85;77.24;98509.53;1687497;83;21005;-64
2021/05/16 09:43:28;;;;;;;6.08;5.33;;;;;;;15.99;76.96;98510.09;1689551;84;20953;-65
2021/05/16 09:46:06;;;;;;;5.97;5.40;;;;;;;15.83;76.11;98507.51;1686517;84;20958;-65
2021/05/16 09:48:42;;;;;;;5.37;4.80;;;;;;;15.57;75.95;98504.97;1687929;84;21592;-65
2021/05/16 09:51:16;;;;;;;8.03;5.80;;;;;;;15.44;76.69;98506.53;1686628;84;20937;-64
2021/05/16 09:54:05;;;;;;;5.53;5.03;;;;;;;15.50;76.86;98498.59;1683130;84;20985;-65
2021/05/16 09:56:37;;;;;;;6.28;5.33;;;;;;;15.65;76.70;98497.24;1687649;84;20997;-65
2021/05/16 09:59:06;;;;;;;7.35;5.90;;;;;;;15.54;76.27;98507.87;1685083;84;21096;-65
2021/05/16 10:01:35;;;;;;;6.37;5.62;;;;;;;15.59;76.45;98500.41;1689608;84;20970;-64
2021/05/16 10:04:05;;;;;;;7.40;5.33;;;;;;;15.48;75.80;98501.83;1685019;84;20945;-64
2021/05/16 10:06:34;;;;;;;5.92;5.33;;;;;;;15.37;76.05;98503.58;1687517;83;21019;-64
2021/05/16 10:09:01;;;;;;;6.92;6.25;;;;;;;15.46;76.34;98494.09;1684976;84;21568;-64
2021/05/16 10:11:30;;;;;;;6.10;5.42;;;;;;;15.68;76.32;98499.63;1685021;84;21062;-64
2021/05/16 10:14:08;;;;;;;6.33;5.72;;;;;;;15.82;75.72;98503.22;1686089;84;20957;-65
2021/05/16 10:16:46;;;;;;;5.97;5.47;;;;;;;15.79;75.55;98496.06;1685034;84;20994;-65
2021/05/16 10:19:18;;;;;;;5.83;5.33;;;;;;;15.81;75.72;98489.70;1687270;84;20930;-65
2021/05/16 10:21:45;;;;;;;7.75;5.17;;;;;;;16.00;75.51;98474.91;1662654;84;20965;-64
2021/05/16 10:24:14;;;;;;;5.72;4.90;;;;;;;16.18;75.59;98478.51;1686333;84;21012;-65
2021/05/16 10:26:42;;;;;;;5.72;5.20;;;;;;;16.28;74.87;98476.72;1689279;84;21463;-65
2021/05/16 10:29:17;;;;;;;6.90;5.20;;;;;;;16.38;74.99;98466.16;1686880;83;20985;-64
2021/05/16 10:31:52;;;;;;;5.95;5.37;;;;;;;16.50;74.92;98474.77;1688465;84;20926;-65
2021/05/16 10:34:38;;;;;;;5.87;5.20;;;;;;;16.59;75.05;98473.92;1688045;84;20939;-65
2021/05/16 10:37:04;;;;;;;5.37;4.87;;;;;;;16.69;74.19;98464.66;1684495;84;21202;-65
2021/05/16 10:39:45;;;;;;;5.22;4.72;;;;;;;16.72;74.50;98453.37;1683013;84;21615;-64
2021/05/16 10:42:20;;;;;;;5.85;5.25;;;;;;;17.04;74.86;98456.15;1682532;84;21020;-65
2021/05/16 10:45:06;;;;;;;5.78;5.17;;;;;;;17.32;74.48;98450.91;1684975;84;20962;-64
2021/05/16 10:47:54;;;;;;;4.95;4.40;;;;;;;17.42;74.05;98447.70;1682381;84;22317;-64
2021/05/16 10:50:34;;;;;;;5.00;4.50;;;;;;;17.42;73.22;98439.79;1685946;84;21054;-64
2021/05/16 10:53:31;;;;;;;7.20;5.08;;;;;;;17.35;73.54;98438.73;1686996;84;20942;-65
2021/05/16 10:56:20;;;;;;;9.00;5.10;;;;;;;17.30;72.89;98427.78;1690661;84;20933;-65
2021/05/16 10:58:49;;;;;;;6.08;5.15;;;;;;;17.02;72.78;98427.77;1683402;84;20997;-64
2021/05/16 11:01:37;;;;;;;5.80;5.15;;;;;;;17.25;73.43;98423.43;1685695;83;20937;-65
2021/05/16 11:04:06;;;;;;;6.00;5.20;;;;;;;17.40;72.91;98419.34;1689056;83;21081;-64
2021/05/16 11:06:44;;;;;;;5.15;4.65;;;;;;;17.33;72.33;98416.94;1681813;83;21024;-64
2021/05/16 11:09:13;;;;;;;7.10;5.40;;;;;;;17.16;71.85;98416.73;1702612;83;21452;-64
2021/05/16 11:11:53;;;;;;;5.65;5.15;;;;;;;17.20;72.42;98414.16;1691603;84;21028;-64
2021/05/16 11:14:33;;;;;;;6.40;4.75;;;;;;;17.25;72.47;98408.92;1682421;84;21611;-65
2021/05/16 11:17:11;;;;;;;6.62;4.47;;;;;;;17.29;72.13;98407.17;1679531;84;21061;-65
2021/05/16 11:19:38;;;;;;;5.55;4.62;;;;;;;17.27;72.13;98406.98;1685907;84;21048;-64
2021/05/16 11:22:18;;;;;;;;;;;;;;;17.38;71.97;98409.42;1687268;84;20915;-65
2021/05/16 11:24:50;;;;;;;5.00;4.47;;;;;;;17.39;71.72;98407.11;1689357;84;20170;-64
2021/05/16 11:27:29;;;;;;;5.03;4.35;;;;;;;17.38;71.50;98401.50;1689665;83;20993;-65
2021/05/16 11:30:03;;;;;;;4.83;4.37;;;;;;;17.47;71.44;98395.33;1700629;83;21525;-64
2021/05/16 11:32:32;;;;;;;5.22;4.72;;;;;;;17.61;71.63;98393.49;1680205;84;20979;-64
2021/05/16 11:35:19;;;;;;;5.30;4.80;;;;;;;17.87;71.31;98394.13;1682086;84;20961;-64
2021/05/16 11:37:51;;;;;;;5.08;4.58;;;;;;;17.89;71.17;98396.11;1683920;84;21001;-64
2021/05/16 11:40:23;;;;;;;6.70;5.50;;;;;;;18.16;71.06;98395.69;1680826;84;21577;-64
2021/05/16 11:43:09;;;;;;;6.00;4.83;;;;;;;18.29;71.04;98388.20;1681936;84;21012;-64
2021/05/16 11:45:41;;;;;;;7.20;4.03;;;;;;;18.51;71.01;98386.38;1678289;84;20931;-64